PLT2136 SBGR-SBNF
Flight info
| Callsign | PLT2136 |
|---|---|
| Flight time | 0h 44m |
| Altitude | 30000 |
| Route | MADNI UZ92 PUBIS |
| Aircraft | A320/M-SDE3FGHIRWY/LB1 |
Departure
| Time | 2026-05-04 02:41 |
|---|---|
| Airport | São Paulo/Guarulhos–Governor André Franco Montoro International Airport (SBGR) |
Arrival
| Time | 2026-05-04 03:26 |
|---|---|
| Airport | Ministro Victor Konder International Airport (SBNF) |
| Time | Latitude | Longitude | Altitude | Speed | Heading |
|---|---|---|---|---|---|
| 2026-05-04 02:29 | -23.42826 | -46.47394 | 2461 ft | 0 kts | 73° |
| 2026-05-04 02:31 | -23.42832 | -46.47418 | 2461 ft | 4 kts | 76° |
| 2026-05-04 02:32 | -23.42839 | -46.47446 | 2463 ft | 4 kts | 74° |
| 2026-05-04 02:32 | -23.42845 | -46.47474 | 2461 ft | 4 kts | 88° |
| 2026-05-04 02:32 | -23.42841 | -46.47501 | 2461 ft | 4 kts | 131° |
| 2026-05-04 02:32 | -23.42834 | -46.47508 | 2463 ft | 0 kts | 158° |
| 2026-05-04 02:36 | -23.42873 | -46.47491 | 2461 ft | 16 kts | 160° |
| 2026-05-04 02:37 | -23.42990 | -46.47457 | 2461 ft | 18 kts | 183° |
| 2026-05-04 02:37 | -23.43045 | -46.47555 | 2462 ft | 15 kts | 255° |
| 2026-05-04 02:37 | -23.43073 | -46.47659 | 2465 ft | 13 kts | 253° |
| 2026-05-04 02:37 | -23.43097 | -46.47747 | 2465 ft | 11 kts | 254° |
| 2026-05-04 02:38 | -23.43117 | -46.47820 | 2463 ft | 9 kts | 254° |
| 2026-05-04 02:38 | -23.43133 | -46.47882 | 2462 ft | 8 kts | 255° |
| 2026-05-04 02:38 | -23.43145 | -46.47931 | 2462 ft | 6 kts | 252° |
| 2026-05-04 02:38 | -23.43162 | -46.47983 | 2462 ft | 14 kts | 250° |
| 2026-05-04 02:39 | -23.43199 | -46.48107 | 2467 ft | 14 kts | 248° |
| 2026-05-04 02:39 | -23.43228 | -46.48197 | 2463 ft | 12 kts | 256° |
| 2026-05-04 02:39 | -23.43247 | -46.48275 | 2464 ft | 10 kts | 253° |
| 2026-05-04 02:39 | -23.43294 | -46.48344 | 2461 ft | 13 kts | 205° |
| 2026-05-04 02:40 | -23.43391 | -46.48334 | 2461 ft | 15 kts | 153° |
| 2026-05-04 02:40 | -23.43413 | -46.48282 | 2465 ft | 0 kts | 81° |
| 2026-05-04 02:40 | -23.43408 | -46.48260 | 2464 ft | 21 kts | 75° |
| 2026-05-04 02:41 | -23.43284 | -46.47798 | 2461 ft | 103 kts | 73° |
| 2026-05-04 02:41 | -23.43013 | -46.46810 | 2492 ft | 162 kts | 74° |
| 2026-05-04 02:41 | -23.42676 | -46.45698 | 3259 ft | 156 kts | 74° |
| 2026-05-04 02:41 | -23.42349 | -46.44583 | 3936 ft | 154 kts | 75° |
| 2026-05-04 02:42 | -23.42008 | -46.43388 | 4127 ft | 173 kts | 75° |
| 2026-05-04 02:42 | -23.41625 | -46.42024 | 4148 ft | 202 kts | 74° |
| 2026-05-04 02:42 | -23.41202 | -46.40537 | 4674 ft | 205 kts | 75° |
| 2026-05-04 02:42 | -23.40810 | -46.38971 | 4932 ft | 228 kts | 85° |
| 2026-05-04 02:43 | -23.41051 | -46.37234 | 5363 ft | 245 kts | 115° |
| 2026-05-04 02:43 | -23.42250 | -46.35849 | 5846 ft | 266 kts | 151° |
| 2026-05-04 02:43 | -23.44084 | -46.35457 | 6521 ft | 279 kts | 186° |
| 2026-05-04 02:43 | -23.45882 | -46.36258 | 7216 ft | 286 kts | 219° |
| 2026-05-04 02:44 | -23.47231 | -46.37859 | 7980 ft | 288 kts | 236° |
| 2026-05-04 02:44 | -23.48290 | -46.39717 | 8806 ft | 289 kts | 243° |
| 2026-05-04 02:44 | -23.49252 | -46.41669 | 9686 ft | 289 kts | 244° |
| 2026-05-04 02:44 | -23.50207 | -46.43615 | 10368 ft | 298 kts | 243° |
| 2026-05-04 02:45 | -23.51257 | -46.45661 | 10570 ft | 321 kts | 242° |
| 2026-05-04 02:45 | -23.52431 | -46.47833 | 10752 ft | 343 kts | 240° |
| 2026-05-04 02:45 | -23.53699 | -46.50075 | 11290 ft | 350 kts | 239° |
| 2026-05-04 02:45 | -23.55010 | -46.52326 | 11936 ft | 353 kts | 239° |
| 2026-05-04 02:46 | -23.56345 | -46.54587 | 12628 ft | 355 kts | 238° |
| 2026-05-04 02:46 | -23.57690 | -46.56861 | 13308 ft | 358 kts | 238° |
| 2026-05-04 02:46 | -23.59023 | -46.59117 | 13986 ft | 360 kts | 238° |
| 2026-05-04 02:46 | -23.60379 | -46.61423 | 14570 ft | 362 kts | 239° |
| 2026-05-04 02:47 | -23.61736 | -46.63742 | 15148 ft | 364 kts | 239° |
| 2026-05-04 02:47 | -23.63102 | -46.66080 | 15730 ft | 366 kts | 239° |
| 2026-05-04 02:47 | -23.64470 | -46.68423 | 16303 ft | 367 kts | 239° |
| 2026-05-04 02:47 | -23.65843 | -46.70784 | 16886 ft | 369 kts | 239° |
| 2026-05-04 02:48 | -23.67220 | -46.73157 | 17474 ft | 371 kts | 240° |
| 2026-05-04 02:48 | -23.68640 | -46.75520 | 18035 ft | 374 kts | 235° |
| 2026-05-04 02:48 | -23.70426 | -46.77611 | 18580 ft | 380 kts | 224° |
| 2026-05-04 02:48 | -23.72619 | -46.79269 | 19072 ft | 388 kts | 212° |
| 2026-05-04 02:49 | -23.75139 | -46.80388 | 19587 ft | 395 kts | 200° |
| 2026-05-04 02:49 | -23.77833 | -46.81061 | 20120 ft | 398 kts | 197° |
| 2026-05-04 02:49 | -23.80544 | -46.81702 | 20640 ft | 399 kts | 197° |
| 2026-05-04 02:49 | -23.83264 | -46.82346 | 21155 ft | 400 kts | 198° |
| 2026-05-04 02:50 | -23.85983 | -46.82991 | 21653 ft | 401 kts | 198° |
| 2026-05-04 02:50 | -23.88712 | -46.83638 | 22145 ft | 402 kts | 198° |
| 2026-05-04 02:50 | -23.91452 | -46.84292 | 22606 ft | 404 kts | 198° |
| 2026-05-04 02:50 | -23.94205 | -46.84951 | 23069 ft | 405 kts | 198° |
| 2026-05-04 02:51 | -23.96028 | -46.85388 | 23378 ft | 406 kts | 199° |
| 2026-05-04 02:51 | -23.99697 | -46.86269 | 23957 ft | 408 kts | 199° |
| 2026-05-04 02:51 | -24.01572 | -46.86718 | 24190 ft | 409 kts | 199° |
| 2026-05-04 02:51 | -24.04349 | -46.87384 | 24518 ft | 411 kts | 199° |
| 2026-05-04 02:52 | -24.07155 | -46.88055 | 24844 ft | 413 kts | 199° |
| 2026-05-04 02:52 | -24.09968 | -46.88725 | 25188 ft | 415 kts | 199° |
| 2026-05-04 02:52 | -24.12800 | -46.89399 | 25513 ft | 417 kts | 200° |
| 2026-05-04 02:52 | -24.15639 | -46.90078 | 25805 ft | 420 kts | 200° |
| 2026-05-04 02:53 | -24.18469 | -46.90759 | 26107 ft | 422 kts | 200° |
| 2026-05-04 02:53 | -24.21378 | -46.91460 | 26414 ft | 424 kts | 200° |
| 2026-05-04 02:53 | -24.24234 | -46.92148 | 26704 ft | 426 kts | 200° |
| 2026-05-04 02:53 | -24.27137 | -46.92845 | 26993 ft | 428 kts | 200° |
| 2026-05-04 02:54 | -24.30062 | -46.93548 | 27274 ft | 430 kts | 200° |
| 2026-05-04 02:54 | -24.32997 | -46.94255 | 27547 ft | 432 kts | 200° |
| 2026-05-04 02:54 | -24.35938 | -46.94960 | 27821 ft | 434 kts | 200° |
| 2026-05-04 02:54 | -24.38896 | -46.95669 | 28118 ft | 436 kts | 201° |
| 2026-05-04 02:55 | -24.44845 | -46.97090 | 28647 ft | 440 kts | 201° |
| 2026-05-04 02:55 | -24.47849 | -46.97793 | 28886 ft | 441 kts | 201° |
| 2026-05-04 02:55 | -24.50862 | -46.98499 | 29123 ft | 443 kts | 201° |
| 2026-05-04 02:56 | -24.53846 | -46.99206 | 29345 ft | 444 kts | 201° |
| 2026-05-04 02:56 | -24.56870 | -46.99931 | 29561 ft | 446 kts | 201° |
| 2026-05-04 02:56 | -24.59819 | -47.00866 | 29798 ft | 437 kts | 209° |
| 2026-05-04 02:56 | -24.62555 | -47.02222 | 30107 ft | 427 kts | 217° |
| 2026-05-04 02:57 | -24.65062 | -47.03910 | 30222 ft | 418 kts | 221° |
| 2026-05-04 02:57 | -24.69897 | -47.07351 | 30214 ft | 413 kts | 221° |
| 2026-05-04 02:58 | -24.74724 | -47.10773 | 30223 ft | 412 kts | 221° |
| 2026-05-04 02:58 | -24.79542 | -47.14193 | 30219 ft | 412 kts | 221° |
| 2026-05-04 02:59 | -24.84362 | -47.17616 | 30214 ft | 412 kts | 221° |
| 2026-05-04 02:59 | -24.89175 | -47.21035 | 30224 ft | 411 kts | 221° |
| 2026-05-04 03:00 | -24.93951 | -47.24434 | 30215 ft | 411 kts | 221° |
| 2026-05-04 03:00 | -24.98750 | -47.27854 | 30237 ft | 410 kts | 220° |
| 2026-05-04 03:01 | -25.03537 | -47.31275 | 30230 ft | 409 kts | 221° |
| 2026-05-04 03:01 | -25.08316 | -47.34690 | 30224 ft | 409 kts | 220° |
| 2026-05-04 03:02 | -25.13109 | -47.38107 | 30218 ft | 409 kts | 220° |
| 2026-05-04 03:02 | -25.17885 | -47.41516 | 30226 ft | 409 kts | 220° |
| 2026-05-04 03:03 | -25.22656 | -47.44935 | 30222 ft | 409 kts | 221° |
| 2026-05-04 03:03 | -25.27424 | -47.48362 | 30246 ft | 408 kts | 220° |
| 2026-05-04 03:04 | -25.32176 | -47.51776 | 30237 ft | 407 kts | 220° |
| 2026-05-04 03:04 | -25.36922 | -47.55184 | 30232 ft | 407 kts | 220° |
| 2026-05-04 03:05 | -25.41670 | -47.58598 | 30225 ft | 407 kts | 220° |
| 2026-05-04 03:05 | -25.46418 | -47.62013 | 30232 ft | 407 kts | 220° |
| 2026-05-04 03:06 | -25.51151 | -47.65424 | 29473 ft | 404 kts | 220° |
| 2026-05-04 03:06 | -25.53486 | -47.67111 | 28444 ft | 408 kts | 220° |
| 2026-05-04 03:06 | -25.55860 | -47.68829 | 27723 ft | 406 kts | 219° |
| 2026-05-04 03:06 | -25.58217 | -47.70532 | 27000 ft | 404 kts | 219° |
| 2026-05-04 03:07 | -25.60561 | -47.72228 | 26317 ft | 402 kts | 219° |
| 2026-05-04 03:07 | -25.62893 | -47.73910 | 25678 ft | 399 kts | 218° |
| 2026-05-04 03:07 | -25.65218 | -47.75588 | 25053 ft | 397 kts | 218° |
| 2026-05-04 03:07 | -25.67529 | -47.77257 | 24439 ft | 395 kts | 218° |
| 2026-05-04 03:08 | -25.69822 | -47.78915 | 23846 ft | 393 kts | 218° |
| 2026-05-04 03:08 | -25.72108 | -47.80571 | 23174 ft | 391 kts | 218° |
| 2026-05-04 03:08 | -25.74383 | -47.82217 | 22797 ft | 389 kts | 218° |
| 2026-05-04 03:08 | -25.76639 | -47.83849 | 21947 ft | 386 kts | 218° |
| 2026-05-04 03:09 | -25.78889 | -47.85475 | 21375 ft | 384 kts | 218° |
| 2026-05-04 03:09 | -25.81117 | -47.87092 | 20830 ft | 382 kts | 217° |
| 2026-05-04 03:09 | -25.83337 | -47.88703 | 20303 ft | 380 kts | 217° |
| 2026-05-04 03:09 | -25.85545 | -47.90310 | 19788 ft | 378 kts | 217° |
| 2026-05-04 03:10 | -25.87732 | -47.91906 | 19293 ft | 376 kts | 217° |
| 2026-05-04 03:10 | -25.89912 | -47.93493 | 18809 ft | 374 kts | 217° |
| 2026-05-04 03:10 | -25.92079 | -47.95066 | 18290 ft | 372 kts | 217° |
| 2026-05-04 03:10 | -25.94238 | -47.96637 | 17733 ft | 370 kts | 217° |
| 2026-05-04 03:11 | -25.96387 | -47.98199 | 17309 ft | 369 kts | 217° |
| 2026-05-04 03:11 | -25.98512 | -47.99746 | 17062 ft | 370 kts | 217° |
| 2026-05-04 03:11 | -26.00689 | -48.01334 | 16810 ft | 370 kts | 216° |
| 2026-05-04 03:11 | -26.02805 | -48.02900 | 16568 ft | 369 kts | 219° |
| 2026-05-04 03:12 | -26.04738 | -48.04752 | 16315 ft | 366 kts | 226° |
| 2026-05-04 03:12 | -26.06574 | -48.06711 | 16080 ft | 365 kts | 226° |
| 2026-05-04 03:12 | -26.08410 | -48.08670 | 15831 ft | 365 kts | 226° |
| 2026-05-04 03:12 | -26.10245 | -48.10620 | 15588 ft | 364 kts | 226° |
| 2026-05-04 03:13 | -26.12079 | -48.12566 | 15355 ft | 364 kts | 226° |
| 2026-05-04 03:13 | -26.13906 | -48.14508 | 15119 ft | 364 kts | 226° |
| 2026-05-04 03:13 | -26.15734 | -48.16452 | 14879 ft | 363 kts | 226° |
| 2026-05-04 03:13 | -26.17567 | -48.18383 | 14652 ft | 363 kts | 223° |
| 2026-05-04 03:14 | -26.19609 | -48.20042 | 14422 ft | 365 kts | 214° |
| 2026-05-04 03:14 | -26.21765 | -48.21537 | 14199 ft | 365 kts | 214° |
| 2026-05-04 03:14 | -26.23916 | -48.23035 | 13959 ft | 364 kts | 214° |
| 2026-05-04 03:14 | -26.26061 | -48.24535 | 13709 ft | 363 kts | 214° |
| 2026-05-04 03:15 | -26.28197 | -48.26031 | 13452 ft | 361 kts | 214° |
| 2026-05-04 03:15 | -26.30313 | -48.27515 | 13072 ft | 357 kts | 214° |
| 2026-05-04 03:15 | -26.32408 | -48.28982 | 12538 ft | 354 kts | 214° |
| 2026-05-04 03:15 | -26.34492 | -48.30436 | 12017 ft | 352 kts | 214° |
| 2026-05-04 03:16 | -26.36554 | -48.31877 | 11687 ft | 344 kts | 214° |
| 2026-05-04 03:16 | -26.38515 | -48.33249 | 11564 ft | 330 kts | 214° |
| 2026-05-04 03:16 | -26.40445 | -48.34597 | 11439 ft | 317 kts | 214° |
| 2026-05-04 03:16 | -26.42285 | -48.35880 | 11322 ft | 306 kts | 214° |
| 2026-05-04 03:17 | -26.44056 | -48.37115 | 11196 ft | 295 kts | 214° |
| 2026-05-04 03:17 | -26.45741 | -48.38293 | 11043 ft | 286 kts | 214° |
| 2026-05-04 03:17 | -26.47433 | -48.39478 | 10761 ft | 282 kts | 215° |
| 2026-05-04 03:17 | -26.49059 | -48.40624 | 10515 ft | 277 kts | 215° |
| 2026-05-04 03:18 | -26.50661 | -48.41748 | 10405 ft | 267 kts | 215° |
| 2026-05-04 03:18 | -26.52204 | -48.42827 | 10288 ft | 257 kts | 215° |
| 2026-05-04 03:18 | -26.53698 | -48.43874 | 9937 ft | 256 kts | 215° |
| 2026-05-04 03:18 | -26.55244 | -48.44963 | 8978 ft | 270 kts | 215° |
| 2026-05-04 03:19 | -26.56844 | -48.46091 | 8342 ft | 270 kts | 215° |
| 2026-05-04 03:19 | -26.58464 | -48.47232 | 7795 ft | 277 kts | 215° |
| 2026-05-04 03:19 | -26.60093 | -48.48379 | 7412 ft | 277 kts | 215° |
| 2026-05-04 03:19 | -26.61732 | -48.49532 | 7035 ft | 277 kts | 215° |
| 2026-05-04 03:20 | -26.63363 | -48.50678 | 6667 ft | 276 kts | 215° |
| 2026-05-04 03:20 | -26.64981 | -48.51814 | 6268 ft | 271 kts | 214° |
| 2026-05-04 03:20 | -26.66540 | -48.52908 | 5913 ft | 258 kts | 214° |
| 2026-05-04 03:20 | -26.68036 | -48.53930 | 5574 ft | 248 kts | 207° |
| 2026-05-04 03:21 | -26.69665 | -48.54401 | 5257 ft | 247 kts | 180° |
| 2026-05-04 03:21 | -26.71320 | -48.54020 | 5007 ft | 242 kts | 151° |
| 2026-05-04 03:21 | -26.72744 | -48.53008 | 4997 ft | 243 kts | 143° |
| 2026-05-04 03:21 | -26.74155 | -48.51930 | 4685 ft | 249 kts | 143° |
| 2026-05-04 03:22 | -26.75597 | -48.50838 | 4123 ft | 248 kts | 143° |
| 2026-05-04 03:22 | -26.77084 | -48.49946 | 3765 ft | 241 kts | 167° |
| 2026-05-04 03:22 | -26.78692 | -48.50127 | 3420 ft | 233 kts | 208° |
| 2026-05-04 03:22 | -26.79869 | -48.51280 | 3075 ft | 220 kts | 232° |
| 2026-05-04 03:23 | -26.80726 | -48.52638 | 2773 ft | 205 kts | 237° |
| 2026-05-04 03:23 | -26.81455 | -48.53949 | 2395 ft | 193 kts | 238° |
| 2026-05-04 03:23 | -26.82146 | -48.55207 | 1959 ft | 185 kts | 238° |
| 2026-05-04 03:23 | -26.82802 | -48.56372 | 1733 ft | 170 kts | 237° |
| 2026-05-04 03:24 | -26.83424 | -48.57449 | 1529 ft | 158 kts | 237° |
| 2026-05-04 03:24 | -26.84017 | -48.58461 | 1305 ft | 153 kts | 236° |
| 2026-05-04 03:24 | -26.84597 | -48.59444 | 1099 ft | 150 kts | 237° |
| 2026-05-04 03:24 | -26.85145 | -48.60422 | 830 ft | 146 kts | 238° |
| 2026-05-04 03:25 | -26.85699 | -48.61351 | 667 ft | 142 kts | 236° |
| 2026-05-04 03:25 | -26.86219 | -48.62279 | 470 ft | 140 kts | 238° |
| 2026-05-04 03:25 | -26.86771 | -48.63164 | 241 ft | 137 kts | 236° |
| 2026-05-04 03:25 | -26.87304 | -48.64048 | 87 ft | 136 kts | 234° |
| 2026-05-04 03:26 | -26.87815 | -48.64885 | 31 ft | 119 kts | 236° |
| 2026-05-04 03:26 | -26.88122 | -48.65394 | 29 ft | 36 kts | 236° |
| 2026-05-04 03:26 | -26.88200 | -48.65534 | 31 ft | 15 kts | 239° |
| 2026-05-04 03:26 | -26.88252 | -48.65598 | 32 ft | 10 kts | 150° |
| 2026-05-04 03:27 | -26.88245 | -48.65553 | 30 ft | 8 kts | 41° |
| 2026-05-04 03:27 | -26.88162 | -48.65472 | 30 ft | 18 kts | 45° |
| 2026-05-04 03:27 | -26.88099 | -48.65358 | 30 ft | 16 kts | 56° |
| 2026-05-04 03:27 | -26.88040 | -48.65259 | 29 ft | 15 kts | 56° |
| 2026-05-04 03:28 | -26.87985 | -48.65164 | 28 ft | 14 kts | 56° |
| 2026-05-04 03:28 | -26.87934 | -48.65080 | 29 ft | 11 kts | 55° |
| 2026-05-04 03:28 | -26.87917 | -48.65015 | 31 ft | 7 kts | 112° |
| 2026-05-04 03:28 | -26.87949 | -48.64980 | 31 ft | 6 kts | 144° |
| 2026-05-04 03:29 | -26.87965 | -48.64969 | 29 ft | 0 kts | 147° |
| 2026-05-04 03:29 | -26.87970 | -48.64967 | 29 ft | 2 kts | 163° |
| 2026-05-04 03:29 | -26.87990 | -48.64962 | 29 ft | 3 kts | 163° |
| 2026-05-04 03:29 | -26.88016 | -48.64948 | 29 ft | 1 kts | 149° |
| 2026-05-04 03:30 | -26.88021 | -48.64944 | 29 ft | 1 kts | 147° |
| 2026-05-04 03:30 | -26.88022 | -48.64943 | 29 ft | 0 kts | 147° |